Time;durP1;ratioP1;P1;durP2;ratioP2;P2;SDS_P1;SDS_P2;PMS_P1;PMS_P2;Temp;Humidity;BMP_temperature;BMP_pressure;BME280_temperature;BME280_humidity;BME280_pressure;Samples;Min_cycle;Max_cycle;Signal;HPM_P1;HPM_P2
2022/03/23 00:01:27;;;;;;;4.20;1.40;;;4.90;99.90;;;4.56;100.00;101154.97;4933132;29;20199;-72
2022/03/23 00:03:55;;;;;;;4.63;1.42;;;4.80;99.90;;;4.45;100.00;101146.63;4934173;29;20211;-72
2022/03/23 00:06:24;;;;;;;4.47;1.38;;;4.80;99.90;;;4.32;100.00;101140.78;4930165;29;20207;-72
2022/03/23 00:08:52;;;;;;;10.68;3.17;;;4.70;99.90;;;4.23;100.00;101129.88;4933048;29;20292;-72
2022/03/23 00:11:20;;;;;;;2.65;0.95;;;4.70;99.90;;;4.40;100.00;101153.38;4933997;29;20213;-72
2022/03/23 00:13:49;;;;;;;5.55;1.60;;;4.60;99.90;;;4.41;100.00;101157.78;4934766;29;20203;-72
2022/03/23 00:16:17;;;;;;;5.72;1.80;;;4.70;99.90;;;4.31;100.00;101159.91;4934383;29;20206;-72
2022/03/23 00:18:45;;;;;;;6.10;2.13;;;4.60;99.90;;;4.15;100.00;101150.47;4922639;29;20215;-72
2022/03/23 00:21:14;;;;;;;2.58;0.98;;;4.60;99.90;;;3.84;100.00;101149.00;4932159;29;20207;-72
2022/03/23 00:23:42;;;;;;;2.83;1.00;;;4.50;99.90;;;4.37;100.00;101210.84;4930053;29;20219;-76
2022/03/23 00:26:12;;;;;;;1.88;0.75;;;4.50;99.90;;;4.11;100.00;101182.56;4918051;29;20211;-74
2022/03/23 00:28:40;;;;;;;2.65;1.00;;;4.50;99.90;;;4.03;100.00;101184.81;4929626;29;20241;-75
2022/03/23 00:31:09;;;;;;;2.20;0.90;;;4.40;99.90;;;3.98;100.00;101191.56;4935669;29;20199;-74
2022/03/23 00:33:37;;;;;;;1.45;0.63;;;4.30;99.90;;;4.02;100.00;101201.34;4929869;29;20591;-75
2022/03/23 00:36:07;;;;;;;2.00;0.80;;;4.30;99.90;;;3.86;100.00;101198.78;4947081;29;20239;-75
2022/03/23 00:38:35;;;;;;;2.22;0.77;;;4.30;99.90;;;3.70;100.00;101197.16;4947336;29;20211;-75
2022/03/23 00:41:04;;;;;;;2.20;0.85;;;4.20;99.90;;;3.79;100.00;101202.84;4916766;29;20211;-74
2022/03/23 00:43:32;;;;;;;3.65;1.02;;;4.20;99.90;;;3.76;100.00;101207.03;4935792;29;20218;-78
2022/03/23 00:46:02;;;;;;;2.63;0.95;;;4.10;99.90;;;3.66;100.00;101212.63;4934297;29;20245;-75
2022/03/23 00:48:30;;;;;;;2.63;0.98;;;4.10;99.90;;;3.69;100.00;101226.75;4947600;29;20239;-79
2022/03/23 00:50:59;;;;;;;2.30;0.95;;;4.10;99.90;;;3.82;100.00;101239.63;4947598;29;20207;-73
2022/03/23 00:53:27;;;;;;;3.55;1.27;;;4.10;99.90;;;3.70;100.00;101232.88;4927470;29;20210;-73
2022/03/23 00:55:55;;;;;;;2.97;1.00;;;4.10;99.90;;;3.61;100.00;101219.34;4949707;29;20230;-73
2022/03/23 00:58:23;;;;;;;1.92;0.80;;;4.00;99.90;;;3.76;100.00;101247.16;4934200;29;20217;-72
2022/03/23 01:00:52;;;;;;;2.47;0.88;;;4.00;99.90;;;3.82;100.00;101250.06;4949490;28;20663;-73
2022/03/23 01:03:20;;;;;;;2.80;1.00;;;4.10;99.90;;;3.84;100.00;101247.53;4947407;29;20211;-73
2022/03/23 01:05:51;;;;;;;2.95;1.08;;;4.10;99.90;;;3.50;100.00;101226.66;4922020;29;20230;-72
2022/03/23 01:08:19;;;;;;;1.55;0.70;;;4.00;99.90;;;3.55;100.00;101233.03;4942426;29;20246;-72
2022/03/23 01:10:48;;;;;;;3.35;1.67;;;4.00;99.90;;;3.07;100.00;101227.09;4945072;29;20211;-73
2022/03/23 01:13:17;;;;;;;1.88;0.82;;;3.80;99.90;;;3.05;100.00;101240.91;4946427;29;20223;-73
2022/03/23 01:15:45;;;;;;;3.25;1.10;;;3.70;99.90;;;3.22;100.00;101255.75;4925227;29;20230;-73
2022/03/23 01:18:13;;;;;;;2.15;0.90;;;3.70;99.90;;;3.27;100.00;101259.50;4923313;29;20218;-73
2022/03/23 01:20:41;;;;;;;1.92;0.70;;;3.70;99.90;;;3.28;100.00;101273.47;4927606;29;20214;-72
2022/03/23 01:23:10;;;;;;;2.67;1.00;;;3.70;99.90;;;3.52;100.00;101304.38;4948234;29;20207;-73
2022/03/23 01:25:38;;;;;;;4.00;2.97;;;3.70;99.90;;;3.30;100.00;101288.41;4930960;29;20305;-73
2022/03/23 01:28:08;;;;;;;1.98;0.75;;;3.70;99.90;;;3.35;100.00;101283.41;4947290;29;20300;-73
2022/03/23 01:30:37;;;;;;;2.17;0.80;;;3.70;99.90;;;3.24;100.00;101281.97;4949012;29;20214;-73
2022/03/23 01:33:05;;;;;;;2.78;1.00;;;3.60;99.90;;;3.38;100.00;101296.66;4949418;29;20215;-73
2022/03/23 01:35:33;;;;;;;3.10;1.05;;;3.60;99.90;;;3.45;100.00;101310.13;4942273;28;20234;-73
2022/03/23 01:38:02;;;;;;;1.83;0.80;;;3.60;99.90;;;3.46;100.00;101313.63;4948956;29;20210;-73
2022/03/23 01:40:29;;;;;;;0.52;0.45;;;3.60;99.90;;;3.25;100.00;101304.69;4948645;28;20217;-73
2022/03/23 01:42:57;;;;;;;3.38;1.50;;;3.60;99.90;;;3.20;100.00;101288.75;4930662;29;20206;-73
2022/03/23 01:45:27;;;;;;;3.03;1.05;;;3.50;99.90;;;3.17;100.00;101293.81;4924354;29;20228;-73
2022/03/23 01:47:55;;;;;;;3.17;1.08;;;3.50;99.90;;;3.07;100.00;101300.28;4917616;29;20219;-73
2022/03/23 01:50:23;;;;;;;1.90;0.80;;;3.50;99.90;;;2.75;100.00;101295.97;4913827;29;20219;-73
2022/03/23 01:52:51;;;;;;;1.30;0.63;;;3.40;99.90;;;2.76;100.00;101302.06;4945142;29;20667;-73
2022/03/23 01:55:20;;;;;;;2.85;1.10;;;3.30;99.90;;;2.70;100.00;101309.59;4918263;29;20246;-73
2022/03/23 01:57:51;;;;;;;1.55;0.70;;;3.20;99.90;;;2.67;100.00;101325.97;4932429;29;20214;-73
2022/03/23 02:00:21;;;;;;;2.60;1.02;;;3.20;99.90;;;2.66;100.00;101326.78;4931648;29;20206;-73
2022/03/23 02:02:49;;;;;;;3.50;3.13;;;3.10;99.90;;;2.78;100.00;101357.91;4931154;29;20241;-73
2022/03/23 02:05:18;;;;;;;1.92;0.75;;;3.10;99.90;;;2.71;100.00;101361.91;4948388;29;20230;-72
2022/03/23 02:07:56;;;;;;;3.08;1.00;;;3.10;99.90;;;2.59;100.00;101350.75;4945490;29;20260;-73
2022/03/23 02:10:24;;;;;;;3.05;1.00;;;3.10;99.90;;;2.68;100.00;101363.44;4913469;29;20218;-73
2022/03/23 02:13:12;;;;;;;2.55;1.02;;;3.10;99.90;;;2.80;100.00;101385.91;4930408;29;20223;-73
2022/03/23 02:15:41;;;;;;;2.67;1.00;;;3.10;99.90;;;2.61;100.00;101383.09;4903468;29;20235;-73
2022/03/23 02:18:09;;;;;;;2.63;0.95;;;3.00;99.90;;;2.58;100.00;101368.13;4924789;29;20210;-72
2022/03/23 02:20:38;;;;;;;2.65;1.00;;;3.00;99.90;;;2.71;100.00;101381.91;4925549;29;20206;-72
2022/03/23 02:23:06;;;;;;;1.73;0.73;;;3.00;99.90;;;2.52;100.00;101386.06;4932938;29;20210;-73
2022/03/23 02:25:36;;;;;;;4.45;1.40;;;2.90;99.90;;;2.46;100.00;101379.59;4919311;29;20238;-73
2022/03/23 02:28:04;;;;;;;1.85;0.70;;;2.90;99.90;;;2.40;100.00;101380.16;4933203;29;20233;-73
2022/03/23 02:30:32;;;;;;;2.25;0.82;;;2.80;99.90;;;2.74;100.00;101429.09;4932370;29;20211;-72
2022/03/23 02:33:01;;;;;;;1.90;0.80;;;2.90;99.90;;;2.73;100.00;101411.63;4928951;29;20199;-73
2022/03/23 02:35:29;;;;;;;2.72;1.00;;;2.90;99.90;;;2.66;100.00;101399.03;4921877;29;20245;-73
2022/03/23 02:37:57;;;;;;;2.63;0.90;;;2.90;99.90;;;2.45;100.00;101388.25;4932403;29;20644;-73
2022/03/23 02:40:25;;;;;;;1.95;0.80;;;2.90;99.90;;;2.51;100.00;101396.41;4933455;29;20214;-73
2022/03/23 02:42:54;;;;;;;3.70;1.20;;;2.80;99.90;;;2.57;100.00;101415.03;4924414;29;20667;-73
2022/03/23 02:45:22;;;;;;;3.20;1.17;;;2.80;99.90;;;2.53;100.00;101420.91;4929975;29;20230;-73
2022/03/23 02:47:50;;;;;;;2.30;0.90;;;2.80;99.90;;;2.36;100.00;101409.50;4947176;29;20207;-73
2022/03/23 02:50:18;;;;;;;3.13;1.00;;;2.80;99.90;;;2.37;100.00;101416.53;4927689;29;20230;-72
2022/03/23 03:01:52;;;;;;;1.98;0.90;;;2.60;99.90;;;2.19;100.00;101442.47;4931670;29;20203;-73
2022/03/23 03:04:23;;;;;;;3.35;1.10;;;2.60;99.90;;;2.05;100.00;101445.97;4921256;29;20226;-73
2022/03/23 03:06:51;;;;;;;2.00;0.70;;;2.50;99.90;;;2.07;100.00;101451.28;4915046;29;20210;-72
2022/03/23 03:09:22;;;;;;;2.83;1.00;;;2.50;99.90;;;2.18;100.00;101471.97;4931796;29;20226;-73
2022/03/23 03:11:51;;;;;;;2.72;1.00;;;2.40;99.90;;;2.14;100.00;101475.22;4926455;29;20592;-73
2022/03/23 03:14:19;;;;;;;4.22;1.45;;;2.50;99.90;;;1.98;100.00;101462.06;4931852;29;20229;-73
2022/03/23 03:16:47;;;;;;;3.10;1.00;;;2.40;99.90;;;2.19;100.00;101488.53;4933228;29;20203;-73
2022/03/23 03:19:15;;;;;;;2.50;0.93;;;2.40;99.90;;;2.40;100.00;101510.69;4932603;29;20222;-73
2022/03/23 03:21:43;;;;;;;2.83;0.95;;;2.50;99.90;;;2.14;100.00;101490.88;4934502;29;20211;-73
2022/03/23 03:24:11;;;;;;;2.60;1.00;;;2.50;99.90;;;1.97;100.00;101481.13;4925418;29;20226;-72
2022/03/23 03:26:39;;;;;;;2.30;0.90;;;2.40;99.90;;;2.20;100.00;101503.38;4931244;29;20210;-73
2022/03/23 03:29:07;;;;;;;3.50;1.15;;;2.40;99.90;;;2.23;100.00;101519.22;4935207;29;20234;-73
2022/03/23 03:31:35;;;;;;;2.47;0.93;;;2.50;99.90;;;1.90;100.00;101505.94;4931587;29;20214;-73
2022/03/23 03:34:04;;;;;;;3.45;1.20;;;2.40;99.90;;;1.92;100.00;101504.34;4918239;29;20242;-73
2022/03/23 03:36:32;;;;;;;3.72;1.33;;;2.30;99.90;;;1.99;100.00;101516.03;4930394;29;20683;-73
2022/03/23 03:39:00;;;;;;;5.07;1.60;;;2.30;99.90;;;1.98;100.00;101511.63;4924961;29;20206;-73
2022/03/23 03:41:28;;;;;;;2.65;1.00;;;2.30;99.90;;;1.94;100.00;101509.66;4936259;29;20214;-73
2022/03/23 03:43:56;;;;;;;2.58;0.90;;;2.20;99.90;;;1.95;100.00;101518.38;4934951;29;20209;-73
2022/03/23 03:46:24;;;;;;;2.33;1.23;;;2.20;99.90;;;1.96;100.00;101525.38;4927665;29;20519;-73
2022/03/23 03:48:52;;;;;;;6.85;2.10;;;2.20;99.90;;;1.90;100.00;101524.22;4929042;29;20222;-72
2022/03/23 03:51:21;;;;;;;2.05;0.93;;;2.20;99.90;;;1.82;100.00;101524.56;4932989;29;20204;-72
2022/03/23 03:53:49;;;;;;;3.22;1.10;;;2.20;99.90;;;1.83;100.00;101535.06;4924467;29;20218;-72
2022/03/23 03:56:17;;;;;;;2.53;0.98;;;2.20;99.90;;;1.86;100.00;101545.69;4925728;29;20203;-73
2022/03/23 03:58:45;;;;;;;3.22;1.17;;;2.20;99.90;;;1.60;100.00;101540.56;4932560;29;20222;-73
2022/03/23 04:01:14;;;;;;;2.15;0.90;;;2.10;99.90;;;1.50;100.00;101533.00;4932226;29;20233;-73
2022/03/23 04:03:42;;;;;;;3.75;1.33;;;2.00;99.90;;;1.43;100.00;101531.69;4923487;29;20211;-73
2022/03/23 04:06:10;;;;;;;2.83;1.05;;;1.90;99.90;;;1.48;100.00;101542.41;4934455;29;20203;-73
2022/03/23 04:08:38;;;;;;;3.15;1.15;;;1.90;99.90;;;1.39;100.00;101539.22;4924669;29;20230;-73
2022/03/23 04:11:06;;;;;;;3.20;1.20;;;1.80;99.90;;;1.48;100.00;101563.28;4930518;29;20207;-73
2022/03/23 04:13:34;;;;;;;1.83;0.80;;;1.70;99.90;;;1.48;100.00;101564.19;4936372;29;20202;-73
2022/03/23 04:16:03;;;;;;;1.75;0.82;;;1.70;99.90;;;1.57;100.00;101577.78;4930236;29;20238;-73
2022/03/23 04:18:31;;;;;;;1.60;0.73;;;1.70;99.90;;;1.47;100.00;101569.28;4919812;29;20207;-73
2022/03/23 04:21:00;;;;;;;3.08;1.08;;;1.70;99.90;;;1.29;100.00;101561.16;4924404;29;20226;-73
2022/03/23 04:23:34;;;;;;;3.55;1.20;;;1.70;99.90;;;1.31;100.00;101561.31;4931088;29;20207;-73
2022/03/23 04:26:02;;;;;;;2.05;0.88;;;1.60;99.90;;;1.39;100.00;101581.84;4917106;29;20227;-73
2022/03/23 04:28:31;;;;;;;1.77;0.80;;;1.70;99.90;;;1.26;100.00;101577.50;4929177;29;20206;-73
2022/03/23 04:31:01;;;;;;;1.75;0.82;;;1.60;99.90;;;1.24;100.00;101575.59;4933997;29;20238;-73
2022/03/23 04:33:29;;;;;;;2.70;1.05;;;1.50;99.90;;;1.22;100.00;101578.13;4927808;29;20211;-73
2022/03/23 04:35:57;;;;;;;2.00;0.90;;;1.50;99.90;;;1.22;100.00;101583.31;4924908;29;20234;-72
2022/03/23 04:38:26;;;;;;;2.65;1.08;;;1.60;99.90;;;1.24;100.00;101584.31;4935708;29;20210;-73
2022/03/23 04:40:56;;;;;;;2.03;0.90;;;1.50;99.90;;;1.27;100.00;101594.94;4935732;29;20207;-73
2022/03/23 04:43:24;;;;;;;2.33;1.00;;;1.60;99.90;;;1.20;100.00;101605.78;4935243;29;20214;-73
2022/03/23 04:45:52;;;;;;;1.40;0.70;;;1.50;99.90;;;1.20;100.00;101595.34;4928536;29;20239;-73
2022/03/23 04:48:20;;;;;;;2.42;1.08;;;1.50;99.90;;;1.22;100.00;101609.38;4917439;29;20218;-73
2022/03/23 04:50:48;;;;;;;5.93;1.88;;;1.50;99.90;;;1.29;100.00;101616.81;4928019;29;20238;-72
2022/03/23 04:53:17;;;;;;;7.22;2.22;;;1.50;99.90;;;1.17;100.00;101618.59;4926372;29;20206;-72
2022/03/23 04:55:45;;;;;;;7.00;2.10;;;1.50;99.90;;;1.18;100.00;101625.63;4927969;29;20237;-73
2022/03/23 04:58:13;;;;;;;5.30;1.67;;;1.50;99.90;;;1.19;100.00;101632.63;4925781;29;20206;-72
2022/03/23 05:00:41;;;;;;;3.88;1.33;;;1.50;99.90;;;1.22;100.00;101634.53;4924166;29;20226;-73
2022/03/23 05:03:13;;;;;;;4.72;1.50;;;1.50;99.90;;;1.22;100.00;101637.16;4920223;29;20215;-73
2022/03/23 05:05:43;;;;;;;4.53;1.50;;;1.50;99.90;;;1.15;100.00;101634.94;4925799;29;20594;-72
2022/03/23 05:08:12;;;;;;;5.28;1.65;;;1.40;99.90;;;1.07;100.00;101636.13;4922355;29;20206;-73
2022/03/23 05:10:40;;;;;;;1.85;0.75;;;1.40;99.90;;;1.03;100.00;101634.13;4931669;29;20628;-73
2022/03/23 05:13:08;;;;;;;2.65;1.02;;;1.40;99.90;;;1.08;100.00;101650.97;4942969;29;20568;-73
2022/03/23 05:15:36;;;;;;;1.85;0.80;;;1.30;99.90;;;1.09;100.00;101665.81;4930703;29;20246;-73
2022/03/23 05:18:04;;;;;;;4.55;1.50;;;1.30;99.90;;;1.23;100.00;101683.25;4929611;29;20214;-72
2022/03/23 05:20:33;;;;;;;5.13;1.60;;;1.40;99.90;;;1.11;100.00;101672.91;4922360;29;20211;-72
2022/03/23 05:23:02;;;;;;;2.95;1.10;;;2.00;99.90;;;1.00;100.00;101673.91;4922633;29;20211;-73
2022/03/23 05:25:30;;;;;;;1.88;0.80;;;1.40;99.90;;;0.86;100.00;101675.59;4929444;29;20246;-73
2022/03/23 05:27:58;;;;;;;0.98;0.60;;;1.30;99.90;;;0.73;100.00;101664.25;4930531;29;20207;-73
2022/03/23 05:30:26;;;;;;;4.20;1.40;;;1.20;99.90;;;0.63;100.00;101675.72;4914271;29;20450;-73
2022/03/23 05:32:54;;;;;;;5.60;1.80;;;1.20;99.90;;;0.73;100.00;101680.75;4914624;29;20210;-72
2022/03/23 05:35:22;;;;;;;4.82;1.60;;;1.10;99.90;;;0.83;100.00;101710.94;4919723;29;20237;-72
2022/03/23 05:37:50;;;;;;;3.47;1.30;;;1.10;99.90;;;0.85;100.00;101720.66;4929889;29;20210;-73
2022/03/23 05:40:19;;;;;;;4.47;1.50;;;1.10;99.90;;;0.85;100.00;101732.78;4932628;29;20217;-72
2022/03/23 05:42:48;;;;;;;1.63;0.75;;;1.10;99.90;;;0.80;100.00;101723.75;4930599;29;20215;-73
2022/03/23 05:45:22;;;;;;;2.83;1.10;;;1.10;99.90;;;0.87;100.00;101736.38;4932980;29;20230;-73
2022/03/23 05:47:53;;;;;;;4.07;1.40;;;1.10;99.90;;;0.92;100.00;101750.63;4942493;29;20199;-73
2022/03/23 05:50:21;;;;;;;2.03;0.90;;;1.20;99.90;;;1.00;100.00;101751.16;4932782;29;20231;-72
2022/03/23 05:52:49;;;;;;;1.23;0.70;;;1.10;99.90;;;1.06;100.00;101760.28;4930603;29;20196;-73
2022/03/23 05:55:17;;;;;;;1.08;0.65;;;1.20;99.90;;;0.83;100.00;101753.50;4930748;29;20239;-75
2022/03/23 05:57:45;;;;;;;0.88;0.57;;;1.10;99.90;;;0.80;100.00;101771.53;4937715;29;20213;-75
2022/03/23 06:00:13;;;;;;;1.65;0.80;;;1.10;99.90;;;0.84;100.00;101772.63;4926463;29;20233;-74
2022/03/23 06:02:41;;;;;;;3.03;1.08;;;1.10;99.90;;;0.99;100.00;101796.22;4931043;29;20210;-75
2022/03/23 06:05:10;;;;;;;2.80;1.10;;;1.10;99.90;;;0.96;100.00;101795.22;4932971;29;20246;-74
2022/03/23 06:07:39;;;;;;;3.50;1.20;;;1.10;99.90;;;0.93;100.00;101797.63;4932315;29;20202;-74
2022/03/23 06:10:08;;;;;;;2.50;1.00;;;1.10;99.90;;;1.08;100.00;101826.41;4934300;29;20222;-74
2022/03/23 06:12:38;;;;;;;2.00;0.93;;;1.10;99.90;;;1.11;100.00;101823.13;4932041;29;20210;-75
2022/03/23 06:15:08;;;;;;;2.70;1.00;;;1.20;99.90;;;1.13;100.00;101825.03;4926707;29;20222;-74
2022/03/23 06:17:37;;;;;;;5.03;1.58;;;1.20;99.90;;;1.19;100.00;101824.56;4932132;29;20218;-74
2022/03/23 06:20:07;;;;;;;1.98;0.73;;;1.30;99.90;;;1.23;100.00;101826.56;4947257;29;20214;-74
2022/03/23 06:22:35;;;;;;;4.65;1.50;;;1.30;99.90;;;1.29;100.00;101830.50;4933068;29;20207;-74
2022/03/23 06:25:04;;;;;;;4.43;1.40;;;1.40;99.90;;;1.34;100.00;101842.97;4923566;29;20241;-74
2022/03/23 06:27:32;;;;;;;5.63;1.60;;;1.30;99.90;;;1.45;100.00;101845.50;4933570;29;20207;-73
2022/03/23 06:30:01;;;;;;;5.50;1.58;;;1.30;99.90;;;1.45;100.00;101840.31;4926402;29;20199;-74
2022/03/23 06:32:29;;;;;;;0.50;0.50;;;1.40;99.90;;;1.50;100.00;101841.50;4924529;29;20222;-74
2022/03/23 06:34:58;;;;;;;1.20;0.70;;;1.40;99.90;;;1.57;100.00;101855.88;4931307;29;20226;-73
2022/03/23 06:37:26;;;;;;;2.42;0.90;;;1.50;99.90;;;1.69;100.00;101868.81;4932637;29;20233;-73
2022/03/23 06:39:54;;;;;;;4.63;1.40;;;1.50;99.90;;;1.68;100.00;101869.63;4931573;29;20214;-72
2022/03/23 06:42:23;;;;;;;5.85;1.73;;;1.70;99.90;;;1.80;100.00;101878.28;4943429;29;20208;-73
2022/03/23 06:44:51;;;;;;;3.75;1.23;;;1.70;99.90;;;1.88;100.00;101879.69;4926958;29;20223;-73
2022/03/23 06:47:19;;;;;;;6.50;1.85;;;1.80;99.90;;;1.95;100.00;101886.22;4947473;29;20206;-73
2022/03/23 06:49:47;;;;;;;5.22;1.55;;;1.80;99.90;;;1.92;100.00;101884.31;4932635;29;20683;-73
2022/03/23 06:52:17;;;;;;;5.03;1.50;;;1.90;99.90;;;2.09;100.00;101908.91;4952452;23;20252;-78
2022/03/23 06:54:45;;;;;;;3.55;1.10;;;1.90;99.90;;;2.17;100.00;101919.06;4961669;28;20244;-78
2022/03/23 06:57:13;;;;;;;2.63;0.98;;;2.00;99.90;;;2.24;100.00;101918.66;4957863;28;20205;-78
2022/03/23 06:59:41;;;;;;;3.17;1.05;;;2.10;99.90;;;2.31;100.00;101926.91;4958619;28;20610;-79
2022/03/23 07:02:10;;;;;;;5.32;1.55;;;2.10;99.90;;;2.39;100.00;101931.81;4975721;28;20227;-78
2022/03/23 07:04:38;;;;;;;3.83;1.70;;;2.20;99.90;;;2.51;100.00;101924.78;4975115;28;20217;-78
2022/03/23 07:07:06;;;;;;;3.20;1.00;;;2.30;99.90;;;2.73;100.00;101942.78;4942629;28;20205;-76
2022/03/23 07:09:39;;;;;;;5.07;1.58;;;2.50;99.90;;;2.86;100.00;101936.63;4975661;28;20201;-77
2022/03/23 07:12:10;;;;;;;5.22;1.60;;;2.70;99.90;;;3.06;100.00;101958.81;4965444;28;20268;-76
2022/03/23 07:14:40;;;;;;;4.30;1.50;;;2.80;99.90;;;3.20;100.00;101947.50;4957699;28;20240;-76
2022/03/23 07:17:09;;;;;;;7.35;2.05;;;2.90;99.90;;;3.33;100.00;101946.56;4956206;28;20209;-76
2022/03/23 07:19:37;;;;;;;3.53;1.10;;;3.00;99.90;;;3.39;100.00;101944.31;4960633;28;20595;-76
2022/03/23 07:22:05;;;;;;;3.10;1.10;;;3.00;99.90;;;3.58;100.00;101933.28;4974981;28;20212;-77
2022/03/23 07:24:33;;;;;;;7.15;2.03;;;3.10;99.90;;;3.80;100.00;101929.44;4972885;28;20233;-76
2022/03/23 07:27:07;;;;;;;5.20;1.52;;;3.10;99.90;;;3.85;100.00;101906.16;4960674;28;20293;-78
2022/03/23 07:29:51;;;;;;;2.95;1.00;;;3.30;99.90;;;4.07;100.00;101910.97;4968677;28;20209;-79
2022/03/23 07:32:19;;;;;;;1.90;0.75;;;3.50;99.90;;;4.16;100.00;101901.03;4976858;28;20233;-79
2022/03/23 07:34:47;;;;;;;3.22;0.98;;;3.60;99.90;;;4.19;100.00;101898.59;4972174;28;20226;-77
2022/03/23 07:37:15;;;;;;;2.78;0.98;;;3.70;99.90;;;4.71;100.00;101947.00;4971519;28;20210;-77
2022/03/23 07:39:43;;;;;;;3.00;1.08;;;3.80;99.90;;;4.92;100.00;101920.19;4971838;28;20220;-80
2022/03/23 07:42:12;;;;;;;1.90;0.80;;;3.90;99.90;;;4.82;100.00;101890.84;4977751;28;20209;-79
2022/03/23 07:44:40;;;;;;;2.80;0.95;;;4.00;99.90;;;5.22;100.00;101906.16;4981834;28;20225;-80
2022/03/23 07:47:11;;;;;;;2.72;0.90;;;4.50;99.90;;;5.36;100.00;101878.94;4977041;28;20198;-79
2022/03/23 07:49:41;;;;;;;3.70;1.10;;;4.80;99.90;;;5.63;100.00;101881.22;4975956;28;20216;-78
2022/03/23 07:52:10;;;;;;;3.67;1.13;;;4.90;99.90;;;5.70;100.00;101842.22;4963935;28;20229;-78
2022/03/23 07:54:38;;;;;;;3.63;1.10;;;5.10;99.90;;;5.80;100.00;101822.59;4982451;28;20272;-78
2022/03/23 07:57:07;;;;;;;4.95;1.35;;;5.10;99.90;;;5.92;100.00;101810.13;4983026;28;20209;-78
2022/03/23 07:59:35;;;;;;;3.83;1.13;;;5.30;99.90;;;5.92;100.00;101789.09;4965291;28;20205;-78
2022/03/23 08:02:03;;;;;;;5.40;1.52;;;5.30;99.90;;;6.22;99.39;101792.31;4984410;28;20205;-78
2022/03/23 08:04:32;;;;;;;10.20;3.83;;;5.50;99.90;;;6.32;97.42;101762.13;4983313;28;20225;-78
2022/03/23 08:07:01;;;;;;;4.43;1.25;;;5.60;99.90;;;6.53;93.54;101725.47;4982091;28;20217;-79
2022/03/23 08:09:29;;;;;;;5.85;1.60;;;5.80;99.90;;;6.47;92.20;101686.66;4981369;28;20225;-79
2022/03/23 08:11:58;;;;;;;7.13;2.08;;;5.80;99.90;;;6.62;90.67;101657.56;4980499;28;20697;-80
2022/03/23 08:14:26;;;;;;;4.68;1.30;;;5.90;99.90;;;6.89;88.24;101647.34;4983495;28;20240;-79
2022/03/23 08:16:55;;;;;;;1.98;0.80;;;6.00;99.90;;;7.15;85.38;101620.41;4980999;28;20218;-78
2022/03/23 08:19:23;;;;;;;1.67;0.70;;;6.30;99.90;;;7.14;83.94;101588.78;4973086;28;20217;-78
2022/03/23 08:21:52;;;;;;;6.60;1.85;;;6.50;99.90;;;7.17;83.64;101566.13;4956462;28;20213;-81
2022/03/23 08:24:21;;;;;;;5.03;1.50;;;6.50;99.90;;;7.26;82.57;101540.19;4975447;28;20225;-80
2022/03/23 08:26:49;;;;;;;2.08;0.77;;;6.70;99.90;;;7.37;82.13;101523.09;4974905;28;20220;-79
2022/03/23 08:29:17;;;;;;;2.88;0.93;;;6.80;99.90;;;7.41;81.26;101499.53;4972469;28;20201;-79
2022/03/23 08:31:46;;;;;;;6.05;1.70;;;6.90;99.90;;;7.51;81.85;101509.56;4967477;28;20239;-78
2022/03/23 08:34:14;;;;;;;7.15;1.92;;;6.90;99.90;;;7.51;81.65;101497.31;4964617;28;20304;-78
2022/03/23 08:36:42;;;;;;;7.57;1.98;;;7.10;99.90;;;7.74;81.89;101523.59;4964673;28;20213;-78
2022/03/23 08:39:10;;;;;;;4.80;1.70;;;7.10;99.90;;;7.80;81.12;101500.13;4960544;28;20271;-78
2022/03/23 08:41:39;;;;;;;5.75;1.70;;;7.10;99.90;;;8.13;80.36;101511.03;4970532;28;20237;-78
2022/03/23 08:44:07;;;;;;;4.72;1.50;;;7.30;99.90;;;8.03;78.56;101457.13;4973819;28;20236;-81
2022/03/23 08:46:35;;;;;;;4.70;1.50;;;7.40;99.90;;;8.08;78.88;101447.63;4956069;28;20205;-78
2022/03/23 08:49:03;;;;;;;5.43;1.50;;;7.50;99.90;;;8.22;77.74;101437.56;4973134;28;20209;-78
2022/03/23 08:51:31;;;;;;;6.68;2.05;;;7.50;99.90;;;8.44;76.68;101423.41;4970263;28;20217;-79
2022/03/23 08:53:59;;;;;;;6.25;1.70;;;7.60;99.90;;;8.39;77.29;101414.47;4956830;28;20218;-78
2022/03/23 08:56:28;;;;;;;4.10;1.42;;;7.70;99.90;;;8.65;78.46;101442.59;4976036;28;20217;-78
2022/03/23 08:58:56;;;;;;;10.00;2.70;;;7.80;99.90;;;8.82;76.55;101422.03;4974316;28;20666;-78
2022/03/23 09:01:24;;;;;;;5.68;1.55;;;7.90;99.90;;;8.94;76.18;101412.75;4974710;28;20209;-77
2022/03/23 09:03:53;;;;;;;4.00;1.25;;;8.10;99.90;;;8.96;75.38;101389.06;4956925;28;20209;-78
2022/03/23 09:06:21;;;;;;;11.68;2.85;;;8.20;99.90;;;9.02;74.06;101356.69;4974182;28;20209;-78
2022/03/23 09:08:49;;;;;;;10.90;2.80;;;8.40;99.90;;;9.25;72.95;101342.47;4970800;28;20218;-78
2022/03/23 09:11:17;;;;;;;3.05;0.95;;;8.60;99.90;;;9.24;72.13;101316.91;4973716;28;20224;-79
2022/03/23 09:13:47;;;;;;;4.63;1.40;;;8.70;99.90;;;9.43;71.66;101315.69;4956941;28;20224;-79
2022/03/23 09:16:15;;;;;;;4.93;1.50;;;8.80;99.90;;;9.51;70.52;101282.47;4973364;28;20208;-80
2022/03/23 09:18:44;;;;;;;5.15;1.65;;;8.90;99.90;;;9.63;70.78;101288.97;4972071;28;20209;-80
2022/03/23 09:21:13;;;;;;;5.60;1.80;;;9.00;99.90;;;9.90;69.83;101280.84;4972319;28;20212;-79
2022/03/23 09:23:43;;;;;;;2.00;0.70;;;9.20;99.90;;;9.96;69.26;101258.97;4940526;28;20202;-85
2022/03/23 09:26:12;;;;;;;5.43;1.50;;;9.30;99.90;;;10.01;70.88;101267.00;4974041;28;20213;-79
2022/03/23 09:28:40;;;;;;;5.10;1.48;;;9.40;99.90;;;10.33;69.54;101260.78;4972812;28;20213;-79
2022/03/23 09:31:08;;;;;;;3.03;0.95;;;9.60;99.90;;;10.17;68.61;101200.44;4971568;28;20201;-79
2022/03/23 09:33:36;;;;;;;5.70;1.50;;;9.80;99.90;;;10.05;67.53;101158.78;4964312;28;20224;-80
2022/03/23 09:36:05;;;;;;;5.25;1.35;;;9.70;99.90;;;10.63;67.45;101218.28;4973209;28;20225;-81
2022/03/23 09:38:34;;;;;;;5.38;1.50;;;9.90;99.90;;;10.87;66.57;101202.91;4974816;28;20220;-79
2022/03/23 09:41:03;;;;;;;3.08;0.98;;;10.10;99.90;;;10.67;65.70;101137.22;4973737;28;20201;-80
2022/03/23 09:43:31;;;;;;;4.97;1.42;;;10.20;99.90;;;10.90;66.83;101176.50;4956928;28;20209;-79
2022/03/23 09:45:59;;;;;;;3.97;1.17;;;10.40;99.90;;;11.18;65.58;101156.72;4956843;28;20236;-80
2022/03/23 09:48:32;;;;;;;5.40;1.58;;;10.60;99.90;;;11.27;64.14;101113.66;4973997;28;20657;-80
2022/03/23 09:51:02;;;;;;;5.35;1.73;;;10.80;99.90;;;11.31;64.23;101115.47;4956597;28;20654;-84
2022/03/23 09:53:33;;;;;;;5.25;1.48;;;10.90;99.90;;;11.60;63.77;101108.00;4973768;28;20244;-79
2022/03/23 09:56:02;;;;;;;4.70;1.30;;;11.10;99.90;;;11.93;64.19;101117.38;4960497;28;20236;-86
2022/03/23 09:58:30;;;;;;;4.53;1.38;;;11.40;99.90;;;11.83;63.09;101068.66;4955393;28;20202;-81
2022/03/23 10:00:59;;;;;;;2.03;1.08;;;11.50;99.90;;;11.57;63.50;101025.84;4977003;28;20232;-83
2022/03/23 10:04:20;;;;;;;1.45;0.65;;;11.60;99.90;;;11.81;64.44;101065.09;4976764;28;20201;-80
2022/03/23 10:07:39;;;;;;;1.17;0.50;;;11.80;99.90;;;12.08;62.57;101044.25;4973872;28;20220;-82
2022/03/23 10:11:01;;;;;;;0.65;0.35;;;12.00;99.90;;;12.16;61.67;101017.84;4974250;28;20213;-83
2022/03/23 10:13:54;;;;;;;6.18;2.08;;;12.10;99.90;;;12.82;62.45;101078.69;4976027;28;20244;-81
2022/03/23 10:17:08;;;;;;;1.15;0.70;;;12.40;99.90;;;13.00;60.52;101019.63;4976605;28;20209;-80
2022/03/23 10:19:44;;;;;;;3.83;1.30;;;12.70;99.90;;;13.17;60.82;101008.25;4972565;28;20704;-79
2022/03/23 10:22:14;;;;;;;2.13;1.13;;;13.00;99.90;;;13.21;61.51;101012.72;4958638;28;20201;-79
2022/03/23 10:24:43;;;;;;;1.30;0.63;;;13.20;99.90;;;13.43;60.60;101004.03;4975697;28;20249;-80
2022/03/23 10:27:17;;;;;;;0.68;0.30;;;13.60;99.90;;;13.34;60.49;100975.63;4958782;28;20205;-80
2022/03/23 10:29:49;;;;;;;2.90;1.92;;;13.60;99.90;;;13.09;59.68;100902.84;4975356;28;20208;-82
2022/03/23 10:32:20;;;;;;;1.00;0.50;;;13.50;99.90;;;13.67;60.74;100990.88;4973594;28;20232;-80
2022/03/23 10:34:53;;;;;;;2.38;0.90;;;13.60;99.90;;;14.15;60.49;101018.56;4974089;28;20244;-79
2022/03/23 10:37:30;;;;;;;1.70;1.38;;;14.10;99.90;;;14.27;60.30;100980.47;4974593;28;20204;-79
2022/03/23 10:40:09;;;;;;;1.23;0.60;;;14.50;99.90;;;15.10;63.35;101106.72;4974725;28;20216;-79